createdAt,value
2017-12-05T00:00:30.357Z,29.80
2017-12-05T00:01:30.491Z,36.60
2017-12-05T00:02:31.859Z,33.80
2017-12-05T00:03:31.018Z,35.20
2017-12-05T00:04:30.920Z,32.90
2017-12-05T00:05:30.572Z,31.00
2017-12-05T00:06:32.022Z,32.50
2017-12-05T00:07:31.108Z,38.40
2017-12-05T00:08:58.299Z,33.90
2017-12-05T00:09:59.730Z,40.30
2017-12-05T00:11:00.064Z,30.80
2017-12-05T00:11:58.563Z,34.30
2017-12-05T00:12:58.171Z,40.80
2017-12-05T00:13:58.111Z,33.90
2017-12-05T00:14:57.808Z,35.50
2017-12-05T00:15:57.879Z,41.90
2017-12-05T00:16:58.548Z,40.10
2017-12-05T00:17:58.875Z,45.40
2017-12-05T00:18:58.172Z,39.10
2017-12-05T00:19:57.968Z,43.30
2017-12-05T00:20:57.965Z,34.30
2017-12-05T00:21:58.030Z,40.20
2017-12-05T00:22:58.834Z,40.50
2017-12-05T00:23:58.656Z,42.80
2017-12-05T00:24:58.083Z,43.30
2017-12-05T00:25:58.190Z,52.10
2017-12-05T00:27:00.910Z,40.50
2017-12-05T00:27:58.460Z,43.60
2017-12-05T00:28:58.260Z,41.70
2017-12-05T00:29:59.522Z,39.70
2017-12-05T00:30:58.750Z,44.50
2017-12-05T00:31:58.347Z,44.90
2017-12-05T00:32:57.869Z,37.30
2017-12-05T00:33:59.156Z,45.10
2017-12-05T00:34:58.597Z,47.40
2017-12-05T00:35:58.975Z,42.00
2017-12-05T00:36:59.158Z,52.10
2017-12-05T00:38:25.492Z,51.20
2017-12-05T00:39:25.688Z,50.50
2017-12-05T00:40:26.143Z,52.80
2017-12-05T00:41:25.555Z,50.10
2017-12-05T00:42:25.891Z,45.20
2017-12-05T00:43:25.316Z,45.70
2017-12-05T00:44:25.631Z,43.40
2017-12-05T00:45:25.818Z,51.70
2017-12-05T00:46:25.162Z,55.60
2017-12-05T00:47:26.219Z,45.70
2017-12-05T00:48:26.432Z,46.90
2017-12-05T00:49:24.937Z,49.10
2017-12-05T00:50:26.220Z,50.90
2017-12-05T00:51:25.539Z,41.50
2017-12-05T00:52:25.684Z,42.80
2017-12-05T00:53:25.074Z,44.90
2017-12-05T00:54:26.384Z,55.80
2017-12-05T00:55:25.674Z,52.50
2017-12-05T00:56:25.630Z,43.50
2017-12-05T00:57:25.020Z,49.40
2017-12-05T00:58:25.385Z,49.80
2017-12-05T00:59:24.791Z,40.70
2017-12-05T01:00:25.358Z,46.70
2017-12-05T01:01:51.659Z,56.00
2017-12-05T01:02:51.037Z,42.90
2017-12-05T01:03:52.263Z,44.30
2017-12-05T01:04:52.129Z,48.30
2017-12-05T01:06:18.348Z,51.10
2017-12-05T01:07:17.686Z,46.90
2017-12-05T01:08:18.149Z,57.80
2017-12-05T01:09:19.300Z,45.70
2017-12-05T01:10:18.533Z,44.40
2017-12-05T01:11:17.913Z,52.60
2017-12-05T01:12:44.381Z,47.20
2017-12-05T01:13:45.633Z,46.10
2017-12-05T01:14:45.752Z,52.70
2017-12-05T01:15:45.954Z,58.70
2017-12-05T01:16:44.284Z,50.90
2017-12-05T01:17:45.840Z,49.30
2017-12-05T01:18:46.037Z,52.40
2017-12-05T01:19:45.260Z,50.30
2017-12-05T01:20:44.563Z,53.60
2017-12-05T01:21:45.893Z,53.70
2017-12-05T01:22:44.331Z,49.90
2017-12-05T01:23:45.429Z,51.60
2017-12-05T01:24:45.666Z,52.90
2017-12-05T01:25:45.066Z,55.70
2017-12-05T01:27:13.351Z,41.80
2017-12-05T01:29:06.991Z,47.50
2017-12-05T01:30:07.393Z,44.90
2017-12-05T01:31:07.721Z,45.10
2017-12-05T01:32:07.983Z,51.50
2017-12-05T01:33:08.150Z,52.30
2017-12-05T01:34:07.526Z,47.00
2017-12-05T01:35:07.908Z,53.90
2017-12-05T01:36:07.234Z,44.60
2017-12-05T01:37:08.540Z,50.10
2017-12-05T01:38:07.929Z,52.00
2017-12-05T01:39:07.398Z,56.70
2017-12-05T01:40:33.886Z,44.80
2017-12-05T01:41:34.201Z,49.40
2017-12-05T01:42:35.509Z,45.00
2017-12-05T01:43:35.338Z,41.80
2017-12-05T01:44:35.534Z,44.10
2017-12-05T01:45:35.682Z,49.70
2017-12-05T01:46:34.985Z,48.80
2017-12-05T01:47:35.325Z,39.20
2017-12-05T01:48:35.511Z,40.60
2017-12-05T01:49:34.747Z,51.70
2017-12-05T01:50:34.886Z,51.10
2017-12-05T01:51:35.238Z,39.90
2017-12-05T01:52:34.654Z,50.10
2017-12-05T01:53:34.811Z,48.60
2017-12-05T01:54:35.001Z,41.40
2017-12-05T01:55:35.097Z,44.20
2017-12-05T01:56:35.156Z,38.50
2017-12-05T01:57:35.329Z,35.90
2017-12-05T01:58:35.483Z,42.50
2017-12-05T01:59:35.635Z,46.10
2017-12-05T02:00:33.937Z,52.50
2017-12-05T02:01:35.095Z,36.40
2017-12-05T02:02:34.539Z,40.30
2017-12-05T02:04:00.073Z,42.20
2017-12-05T02:05:00.525Z,47.10
2017-12-05T02:06:00.107Z,39.40
2017-12-05T02:07:01.265Z,42.80
2017-12-05T02:08:00.594Z,40.70
2017-12-05T02:09:02.007Z,36.00
2017-12-05T02:10:01.282Z,38.50
2017-12-05T02:11:01.573Z,38.60
2017-12-05T02:12:00.943Z,39.90
2017-12-05T02:13:01.088Z,36.20
2017-12-05T02:14:00.445Z,41.60
2017-12-05T02:15:00.900Z,44.80
2017-12-05T02:16:01.157Z,41.70
2017-12-05T02:17:00.434Z,31.90
2017-12-05T02:18:01.646Z,37.40
2017-12-05T02:19:01.819Z,36.50
2017-12-05T02:20:00.174Z,35.90
2017-12-05T02:21:01.446Z,38.00
2017-12-05T02:22:00.787Z,35.50
2017-12-05T02:23:00.906Z,43.00
2017-12-05T02:24:00.325Z,39.10
2017-12-05T02:25:00.655Z,44.00
2017-12-05T02:26:01.843Z,44.90
2017-12-05T02:27:00.128Z,46.70
2017-12-05T02:28:00.545Z,45.60
2017-12-05T02:29:00.923Z,47.30
2017-12-05T02:30:00.250Z,48.00
2017-12-05T02:31:01.435Z,55.50
2017-12-05T02:32:00.756Z,52.60
2017-12-05T02:33:00.943Z,47.80
2017-12-05T02:34:00.514Z,52.30
2017-12-05T02:35:00.809Z,41.00
2017-12-05T02:36:00.948Z,43.00
2017-12-05T02:37:01.055Z,54.40
2017-12-05T02:38:01.180Z,62.10
2017-12-05T02:39:01.302Z,48.70
2017-12-05T02:40:01.427Z,60.10
2017-12-05T02:41:01.287Z,58.40
2017-12-05T02:42:01.161Z,52.70
2017-12-05T02:43:01.719Z,59.10
2017-12-05T02:44:01.856Z,55.60
2017-12-05T02:45:00.943Z,63.20
2017-12-05T02:46:00.325Z,57.20
2017-12-05T02:47:02.288Z,54.90
2017-12-05T02:48:00.647Z,60.70
2017-12-05T02:49:01.057Z,66.00
2017-12-05T02:50:00.390Z,71.90
2017-12-05T02:51:00.754Z,59.40
2017-12-05T02:52:00.083Z,69.70
2017-12-05T02:53:01.325Z,69.90
2017-12-05T02:54:01.563Z,64.30
2017-12-05T02:55:01.701Z,70.70
2017-12-05T02:56:01.949Z,71.00
2017-12-05T02:57:01.096Z,71.10
2017-12-05T02:58:00.436Z,76.30
2017-12-05T02:59:00.869Z,77.10
2017-12-05T03:00:00.203Z,90.30
2017-12-05T03:01:00.592Z,74.20
2017-12-05T03:02:01.921Z,78.40
2017-12-05T03:03:00.843Z,75.80
2017-12-05T03:04:00.140Z,86.40
2017-12-05T03:05:00.500Z,90.30
2017-12-05T03:06:00.922Z,86.70
2017-12-05T03:07:01.233Z,81.70
2017-12-05T03:08:00.574Z,84.70
2017-12-05T03:09:01.648Z,94.00
2017-12-05T03:10:01.814Z,70.20
2017-12-05T03:11:01.082Z,100.80
2017-12-05T03:12:01.202Z,81.70
2017-12-05T03:13:01.400Z,73.60
2017-12-05T03:14:27.013Z,76.50
2017-12-05T03:15:27.473Z,76.20
2017-12-05T03:16:27.803Z,74.40
2017-12-05T03:17:27.103Z,72.20
2017-12-05T03:18:27.452Z,74.50
2017-12-05T03:19:27.761Z,80.70
2017-12-05T03:20:28.468Z,74.50
2017-12-05T03:21:28.767Z,75.20
2017-12-05T03:22:27.926Z,79.40
2017-12-05T03:23:27.367Z,68.60
2017-12-05T03:24:28.606Z,72.60
2017-12-05T03:25:28.783Z,66.10
2017-12-05T03:26:27.890Z,79.00
2017-12-05T03:27:28.064Z,68.00
2017-12-05T03:28:28.394Z,69.50
2017-12-05T03:29:28.577Z,72.70
2017-12-05T03:30:28.083Z,73.80
2017-12-05T03:31:27.414Z,60.50
2017-12-05T03:32:27.812Z,64.60
2017-12-05T03:33:27.224Z,54.70
2017-12-05T03:34:27.607Z,63.30
2017-12-05T03:35:27.027Z,70.80
2017-12-05T03:36:28.156Z,64.60
2017-12-05T03:37:27.090Z,63.90
2017-12-05T03:38:28.077Z,58.40
2017-12-05T03:39:27.359Z,63.10
2017-12-05T03:40:28.542Z,58.70
2017-12-05T03:41:28.753Z,60.30
2017-12-05T03:42:28.478Z,59.90
2017-12-05T03:43:28.091Z,55.50
2017-12-05T03:44:28.211Z,58.50
2017-12-05T03:45:28.449Z,60.00
2017-12-05T03:46:28.644Z,55.00
2017-12-05T03:47:27.932Z,53.20
2017-12-05T03:48:28.124Z,55.70
2017-12-05T03:49:27.566Z,50.30
2017-12-05T03:50:28.801Z,62.20
2017-12-05T03:51:28.040Z,51.10
2017-12-05T03:52:27.414Z,63.80
2017-12-05T03:53:28.589Z,66.40
2017-12-05T03:54:27.300Z,56.30
2017-12-05T03:55:27.178Z,61.30
2017-12-05T03:56:28.565Z,51.50
2017-12-05T03:57:28.807Z,63.50
2017-12-05T03:58:27.988Z,61.70
2017-12-05T03:59:27.307Z,64.00
2017-12-05T04:00:27.788Z,57.50
2017-12-05T04:01:28.047Z,64.80
2017-12-05T04:02:27.415Z,71.90
2017-12-05T04:03:28.609Z,65.10
2017-12-05T04:04:27.983Z,80.30
2017-12-05T04:05:27.340Z,75.90
2017-12-05T04:06:27.674Z,83.00
2017-12-05T04:07:55.834Z,74.40
2017-12-05T04:08:56.156Z,94.00
2017-12-05T04:09:56.195Z,78.90
2017-12-05T04:10:56.415Z,75.10
2017-12-05T04:11:56.644Z,80.60
2017-12-05T04:12:56.310Z,81.70
2017-12-05T04:13:55.778Z,96.30
2017-12-05T04:14:55.513Z,81.00
2017-12-05T04:15:55.988Z,78.40
2017-12-05T04:16:56.715Z,84.80
2017-12-05T04:17:55.435Z,81.40
2017-12-05T04:18:56.387Z,81.70
2017-12-05T04:19:55.799Z,80.40
2017-12-05T04:20:55.435Z,76.10
2017-12-05T04:21:56.846Z,78.40
2017-12-05T04:22:56.159Z,89.60
2017-12-05T04:23:55.817Z,78.70
2017-12-05T04:24:55.432Z,80.80
2017-12-05T04:25:56.799Z,79.40
2017-12-05T04:26:56.088Z,83.30
2017-12-05T04:27:56.595Z,90.50
2017-12-05T04:28:56.928Z,84.00
2017-12-05T04:29:55.825Z,84.30
2017-12-05T04:30:56.264Z,76.40
2017-12-05T04:31:56.642Z,80.10
2017-12-05T04:33:26.858Z,88.90
2017-12-05T04:34:27.425Z,87.50
2017-12-05T04:35:27.544Z,81.60
2017-12-05T04:36:26.803Z,95.80
2017-12-05T04:37:27.393Z,93.90
2017-12-05T04:38:26.216Z,84.20
2017-12-05T04:39:26.665Z,93.30
2017-12-05T04:40:55.318Z,93.70
2017-12-05T04:41:55.671Z,81.70
2017-12-05T04:42:56.106Z,94.30
2017-12-05T04:44:21.506Z,98.10
2017-12-05T04:45:22.186Z,91.00
2017-12-05T04:46:21.735Z,91.40
2017-12-05T04:47:22.629Z,102.30
2017-12-05T04:48:23.001Z,97.00
2017-12-05T04:49:22.517Z,99.70
2017-12-05T04:50:22.231Z,102.60
2017-12-05T04:51:22.769Z,106.50
2017-12-05T04:52:22.232Z,111.30
2017-12-05T04:53:22.127Z,108.40
2017-12-05T04:54:21.718Z,108.50
2017-12-05T04:55:22.369Z,117.60
2017-12-05T04:56:50.447Z,109.60
2017-12-05T04:57:50.787Z,114.80
2017-12-05T04:58:50.656Z,116.30
2017-12-05T04:59:49.927Z,107.70
2017-12-05T05:00:49.845Z,105.90
2017-12-05T05:01:51.186Z,98.10
2017-12-05T05:02:50.886Z,104.60
2017-12-05T05:03:50.736Z,107.90
2017-12-05T05:04:50.122Z,106.80
2017-12-05T05:05:50.658Z,111.10
2017-12-05T05:06:50.377Z,100.90
2017-12-05T05:07:49.882Z,111.40
2017-12-05T05:08:51.377Z,115.20
2017-12-05T05:09:51.045Z,110.70
2017-12-05T05:10:50.521Z,102.80
2017-12-05T05:11:50.023Z,100.00
2017-12-05T05:12:51.857Z,114.70
2017-12-05T05:13:51.241Z,104.10
2017-12-05T05:14:51.164Z,104.70
2017-12-05T05:15:50.227Z,105.30
2017-12-05T05:16:51.152Z,107.60
2017-12-05T05:17:51.169Z,91.70
2017-12-05T05:18:50.795Z,106.90
2017-12-05T05:19:50.902Z,111.20
2017-12-05T05:20:51.463Z,107.20
2017-12-05T05:21:51.396Z,106.80
2017-12-05T05:22:50.994Z,106.00
2017-12-05T05:23:50.674Z,106.90
2017-12-05T05:24:50.208Z,100.20
2017-12-05T05:25:51.226Z,106.70
2017-12-05T05:26:50.610Z,104.30
2017-12-05T05:27:50.194Z,103.10
2017-12-05T05:28:51.312Z,113.40
2017-12-05T05:29:50.205Z,120.00
2017-12-05T05:30:50.491Z,112.90
2017-12-05T05:31:50.882Z,102.30
2017-12-05T05:32:51.516Z,117.60
2017-12-05T05:33:50.770Z,105.20
2017-12-05T05:34:51.084Z,114.50
2017-12-05T05:35:55.731Z,111.60
2017-12-05T05:37:34.121Z,111.00
2017-12-05T05:38:34.958Z,112.40
2017-12-05T05:39:35.074Z,122.10
2017-12-05T05:40:34.737Z,109.60
2017-12-05T05:41:34.540Z,105.00
2017-12-05T05:42:34.365Z,114.60
2017-12-05T05:43:34.602Z,123.30
2017-12-05T05:44:34.257Z,128.30
2017-12-05T05:45:34.559Z,125.10
2017-12-05T05:46:34.371Z,124.60
2017-12-05T05:47:34.161Z,124.60
2017-12-05T05:48:34.200Z,120.00
2017-12-05T05:49:35.333Z,121.70
2017-12-05T05:50:33.919Z,126.10
2017-12-05T05:51:34.589Z,131.90
2017-12-05T05:52:34.176Z,141.70
2017-12-05T05:53:34.872Z,140.50
2017-12-05T05:54:34.649Z,144.50
2017-12-05T05:55:34.291Z,134.10
2017-12-05T05:56:34.017Z,149.40
2017-12-05T05:57:34.772Z,140.40
2017-12-05T05:58:34.281Z,149.70
2017-12-05T05:59:34.022Z,150.00
2017-12-05T06:00:34.021Z,132.10
2017-12-05T06:01:34.766Z,148.00
2017-12-05T06:02:34.523Z,154.90
2017-12-05T06:03:34.230Z,161.20
2017-12-05T06:04:33.927Z,149.90
2017-12-05T06:05:34.644Z,151.90
2017-12-05T06:06:34.232Z,158.20
2017-12-05T06:08:26.883Z,157.20
2017-12-05T06:09:27.486Z,156.60
2017-12-05T06:10:26.923Z,161.60
2017-12-05T06:11:26.931Z,160.50
2017-12-05T06:12:27.709Z,164.70
2017-12-05T06:13:27.773Z,142.00
2017-12-05T06:14:27.510Z,154.40
2017-12-05T06:15:27.416Z,156.80
2017-12-05T06:16:27.174Z,158.90
2017-12-05T06:17:28.458Z,157.90
2017-12-05T06:18:26.785Z,162.00
2017-12-05T06:19:27.246Z,149.80
2017-12-05T06:20:27.756Z,165.90
2017-12-05T06:21:27.180Z,175.10
2017-12-05T06:22:27.585Z,182.60
2017-12-05T06:23:27.055Z,182.90
2017-12-05T06:24:27.679Z,190.70
2017-12-05T06:25:27.212Z,177.30
2017-12-05T06:26:27.892Z,191.70
2017-12-05T06:27:26.827Z,177.10
2017-12-05T06:28:27.442Z,177.30
2017-12-05T06:29:26.988Z,188.80
2017-12-05T06:30:27.671Z,190.90
2017-12-05T06:31:27.278Z,201.50
2017-12-05T06:32:27.080Z,188.00
2017-12-05T06:33:27.536Z,189.40
2017-12-05T06:34:27.200Z,194.80
2017-12-05T06:35:54.004Z,185.80
2017-12-05T06:36:54.866Z,197.40
2017-12-05T06:37:54.904Z,186.80
2017-12-05T06:38:54.362Z,182.30
2017-12-05T06:39:55.166Z,171.40
2017-12-05T06:40:54.843Z,184.90
2017-12-05T06:41:54.773Z,166.60
2017-12-05T06:42:55.050Z,173.60
2017-12-05T06:43:55.312Z,173.80
2017-12-05T06:44:54.926Z,166.70
2017-12-05T06:45:54.593Z,176.90
2017-12-05T06:46:54.863Z,174.50
2017-12-05T06:47:54.896Z,181.50
2017-12-05T06:48:54.448Z,165.20
2017-12-05T06:49:55.006Z,173.50
2017-12-05T06:50:54.994Z,154.50
2017-12-05T06:51:55.072Z,170.70
2017-12-05T06:53:22.430Z,150.10
2017-12-05T06:54:23.080Z,171.00
2017-12-05T06:55:21.762Z,164.20
2017-12-05T06:56:22.726Z,166.40
2017-12-05T06:57:22.526Z,160.70
2017-12-05T06:58:22.696Z,165.90
2017-12-05T06:59:22.309Z,178.20
2017-12-05T07:00:22.236Z,159.30
2017-12-05T07:01:21.821Z,172.60
2017-12-05T07:02:22.432Z,165.80
2017-12-05T07:03:21.887Z,154.50
2017-12-05T07:04:22.373Z,168.50
2017-12-05T07:05:22.368Z,161.30
2017-12-05T07:06:23.204Z,166.90
2017-12-05T07:07:21.701Z,174.30
2017-12-05T07:08:22.671Z,170.80
2017-12-05T07:09:22.479Z,172.10
2017-12-05T07:10:23.060Z,159.00
2017-12-05T07:11:21.550Z,171.40
2017-12-05T07:12:22.053Z,165.30
2017-12-05T07:13:21.513Z,157.20
2017-12-05T07:14:21.972Z,164.80
2017-12-05T07:15:22.487Z,157.00
2017-12-05T07:16:22.088Z,174.50
2017-12-05T07:17:21.618Z,165.00
2017-12-05T07:18:22.125Z,177.00
2017-12-05T07:19:21.578Z,158.50
2017-12-05T07:20:22.139Z,141.20
2017-12-05T07:21:21.666Z,143.70
2017-12-05T07:22:22.780Z,145.90
2017-12-05T07:23:22.277Z,142.20
2017-12-05T07:24:21.808Z,152.10
2017-12-05T07:25:21.489Z,147.90
2017-12-05T07:26:21.923Z,146.90
2017-12-05T07:27:22.352Z,145.30
2017-12-05T07:28:21.893Z,167.10
2017-12-05T07:29:22.421Z,169.40
2017-12-05T07:30:21.964Z,173.10
2017-12-05T07:31:22.409Z,174.90
2017-12-05T07:32:22.058Z,169.00
2017-12-05T07:33:47.717Z,165.90
2017-12-05T07:35:14.453Z,165.10
2017-12-05T07:36:15.082Z,155.40
2017-12-05T07:37:15.051Z,125.50
2017-12-05T07:38:14.607Z,155.70
2017-12-05T07:39:15.113Z,144.50
2017-12-05T07:40:40.732Z,158.50
2017-12-05T07:41:41.345Z,163.20
2017-12-05T07:42:40.837Z,148.70
2017-12-05T07:43:41.333Z,143.00
2017-12-05T07:44:40.851Z,137.80
2017-12-05T07:45:41.360Z,142.30
2017-12-05T07:46:41.019Z,152.90
2017-12-05T07:47:41.560Z,139.80
2017-12-05T07:49:07.264Z,136.50
2017-12-05T07:50:35.842Z,144.20
2017-12-05T07:52:03.950Z,136.50
2017-12-05T07:53:04.525Z,129.70
2017-12-05T07:54:04.013Z,144.70
2017-12-05T07:55:04.532Z,135.60
2017-12-05T07:56:04.045Z,147.10
2017-12-05T07:57:04.655Z,135.90
2017-12-05T07:58:04.305Z,132.90
2017-12-05T07:59:03.966Z,128.70
2017-12-05T08:00:04.524Z,130.60
2017-12-05T08:01:04.227Z,129.90
2017-12-05T08:02:04.807Z,134.00
2017-12-05T08:03:04.359Z,131.30
2017-12-05T08:04:03.906Z,124.30
2017-12-05T08:05:04.508Z,136.40
2017-12-05T08:06:04.208Z,149.70
2017-12-05T08:07:04.798Z,143.60
2017-12-05T08:08:04.395Z,137.50
2017-12-05T08:09:04.181Z,130.30
2017-12-05T08:10:04.013Z,143.60
2017-12-05T08:11:58.112Z,137.80
2017-12-05T08:12:58.770Z,146.20
2017-12-05T08:13:58.441Z,150.60
2017-12-05T08:14:58.688Z,144.30
2017-12-05T08:15:58.542Z,141.00
2017-12-05T08:16:58.232Z,131.70
2017-12-05T08:17:58.873Z,140.70
2017-12-05T08:18:58.438Z,145.80
2017-12-05T08:19:58.926Z,148.50
2017-12-05T08:20:58.500Z,138.60
2017-12-05T08:21:59.100Z,120.80
2017-12-05T08:22:58.751Z,137.40
2017-12-05T08:23:58.272Z,128.50
2017-12-05T08:24:58.849Z,146.50
2017-12-05T08:25:58.446Z,135.60
2017-12-05T08:26:58.982Z,137.70
2017-12-05T08:27:58.585Z,130.90
2017-12-05T08:28:58.157Z,129.60
2017-12-05T08:29:58.203Z,122.30
2017-12-05T08:30:58.786Z,118.70
2017-12-05T08:31:58.316Z,134.20
2017-12-05T08:32:58.896Z,124.50
2017-12-05T08:33:58.696Z,122.60
2017-12-05T08:34:58.210Z,121.10
2017-12-05T08:35:58.770Z,118.20
2017-12-05T08:37:25.498Z,123.60
2017-12-05T08:38:26.590Z,107.30
2017-12-05T08:39:26.152Z,100.80
2017-12-05T08:40:25.688Z,117.30
2017-12-05T08:41:26.170Z,107.40
2017-12-05T08:42:25.700Z,109.10
2017-12-05T08:43:25.512Z,104.40
2017-12-05T08:44:26.383Z,114.30
2017-12-05T08:45:25.924Z,109.40
2017-12-05T08:46:26.545Z,104.90
2017-12-05T08:47:26.152Z,105.30
2017-12-05T08:48:25.794Z,91.80
2017-12-05T08:49:26.476Z,105.50
2017-12-05T08:50:26.148Z,102.60
2017-12-05T08:51:52.174Z,96.70
2017-12-05T08:52:52.831Z,93.10
2017-12-05T08:53:52.483Z,99.80
2017-12-05T08:54:53.050Z,95.30
2017-12-05T08:56:18.763Z,97.90
2017-12-05T08:57:19.279Z,92.20
2017-12-05T08:58:19.171Z,105.00
2017-12-05T08:59:19.700Z,97.10
2017-12-05T09:00:19.230Z,96.30
2017-12-05T09:01:45.979Z,93.20
2017-12-05T09:02:46.508Z,91.90
2017-12-05T09:03:45.991Z,75.30
2017-12-05T09:04:46.699Z,89.70
2017-12-05T09:05:46.277Z,89.20
2017-12-05T09:06:46.759Z,81.70
2017-12-05T09:07:46.292Z,91.20
2017-12-05T09:08:46.808Z,85.20
2017-12-05T09:09:46.296Z,79.20
2017-12-05T09:10:46.819Z,81.20
2017-12-05T09:11:46.618Z,79.90
2017-12-05T09:12:46.510Z,72.90
2017-12-05T09:13:46.238Z,75.10
2017-12-05T09:14:46.739Z,75.90
2017-12-05T09:15:46.313Z,82.10
2017-12-05T09:16:46.829Z,76.90
2017-12-05T09:17:46.366Z,75.00
2017-12-05T09:18:46.952Z,70.20
2017-12-05T09:19:46.482Z,75.00
2017-12-05T09:20:46.173Z,66.30
2017-12-05T09:21:46.951Z,73.80
2017-12-05T09:22:46.568Z,68.00
2017-12-05T09:23:46.146Z,62.30
2017-12-05T09:24:46.791Z,73.90
2017-12-05T09:26:12.679Z,65.70
2017-12-05T09:27:13.336Z,71.90
2017-12-05T09:28:12.892Z,63.20
2017-12-05T09:29:13.329Z,74.40
2017-12-05T09:30:13.265Z,69.50
2017-12-05T09:31:12.821Z,77.90
2017-12-05T09:32:13.346Z,69.80
2017-12-05T09:33:12.860Z,62.00
2017-12-05T09:34:13.354Z,64.00
2017-12-05T09:35:12.838Z,69.50
2017-12-05T09:36:13.474Z,67.20
2017-12-05T09:37:13.276Z,63.70
2017-12-05T09:38:12.817Z,64.70
2017-12-05T09:39:13.329Z,55.20
2017-12-05T09:40:12.949Z,69.10
2017-12-05T09:41:13.481Z,63.40
2017-12-05T09:42:13.008Z,65.00
2017-12-05T09:43:13.572Z,66.60
2017-12-05T09:44:13.108Z,69.80
2017-12-05T09:45:13.669Z,55.30
2017-12-05T09:46:13.178Z,67.90
2017-12-05T09:47:12.777Z,61.20
2017-12-05T09:48:13.460Z,58.50
2017-12-05T09:49:12.687Z,63.20
2017-12-05T09:50:39.456Z,62.10
2017-12-05T09:51:40.033Z,65.60
2017-12-05T09:52:41.444Z,68.20
2017-12-05T09:53:40.424Z,61.30
2017-12-05T09:54:39.903Z,54.00
2017-12-05T09:55:39.571Z,58.20
2017-12-05T09:56:40.064Z,57.70
2017-12-05T09:57:39.685Z,71.50
2017-12-05T09:58:40.204Z,61.60
2017-12-05T09:59:39.523Z,61.20
2017-12-05T10:00:40.135Z,63.30
2017-12-05T10:01:39.918Z,61.20
2017-12-05T10:02:40.677Z,52.40
2017-12-05T10:03:40.211Z,57.50
2017-12-05T10:04:39.757Z,54.20
2017-12-05T10:05:40.261Z,63.10
2017-12-05T10:06:39.688Z,72.80
2017-12-05T10:07:40.503Z,59.80
2017-12-05T10:08:40.470Z,52.90
2017-12-05T10:09:39.700Z,55.20
2017-12-05T10:10:40.232Z,53.90
2017-12-05T10:11:39.932Z,69.60
2017-12-05T10:12:40.464Z,63.80
2017-12-05T10:13:40.372Z,65.40
2017-12-05T10:14:39.851Z,64.80
2017-12-05T10:15:40.482Z,63.40
2017-12-05T10:16:40.248Z,46.80
2017-12-05T10:17:39.850Z,59.30
2017-12-05T10:18:42.263Z,54.10
2017-12-05T10:19:40.040Z,60.10
2017-12-05T10:20:39.596Z,55.40
2017-12-05T10:21:40.135Z,62.50
2017-12-05T10:22:40.385Z,58.30
2017-12-05T10:23:40.037Z,53.20
2017-12-05T10:24:39.870Z,59.20
2017-12-05T10:25:39.613Z,60.50
2017-12-05T10:26:40.061Z,52.50
2017-12-05T10:27:39.828Z,53.90
2017-12-05T10:28:41.019Z,55.20
2017-12-05T10:29:39.548Z,62.80
2017-12-05T10:30:40.343Z,53.30
2017-12-05T10:31:40.413Z,56.70
2017-12-05T10:32:39.643Z,48.30
2017-12-05T10:33:40.082Z,52.20
2017-12-05T10:34:39.548Z,48.90
2017-12-05T10:35:40.030Z,51.30
2017-12-05T10:36:40.171Z,55.90
2017-12-05T10:37:39.743Z,50.80
2017-12-05T10:38:40.335Z,55.80
2017-12-05T10:39:39.936Z,49.60
2017-12-05T10:40:40.439Z,58.70
2017-12-05T10:41:40.040Z,51.10
2017-12-05T10:42:39.596Z,45.70
2017-12-05T10:43:40.131Z,51.70
2017-12-05T10:44:39.857Z,52.80
2017-12-05T10:45:40.488Z,51.00
2017-12-05T10:46:40.325Z,46.40
2017-12-05T10:47:40.240Z,54.90
2017-12-05T10:48:40.071Z,46.80
2017-12-05T10:49:40.206Z,45.80
2017-12-05T10:50:39.832Z,48.80
2017-12-05T10:51:41.361Z,43.20
2017-12-05T10:52:39.837Z,43.90
2017-12-05T10:53:40.474Z,46.80
2017-12-05T10:54:40.034Z,44.60
2017-12-05T10:56:05.872Z,45.30
2017-12-05T10:57:33.652Z,48.90
2017-12-05T10:58:33.243Z,52.60
2017-12-05T10:59:33.247Z,49.60
2017-12-05T11:00:32.947Z,47.00
2017-12-05T11:01:32.858Z,44.40
2017-12-05T11:02:33.403Z,42.80
2017-12-05T11:03:33.023Z,50.60
2017-12-05T11:04:33.606Z,46.20
2017-12-05T11:05:33.219Z,52.30
2017-12-05T11:06:33.700Z,45.20
2017-12-05T11:07:33.252Z,47.80
2017-12-05T11:08:32.892Z,51.10
2017-12-05T11:09:33.507Z,45.60
2017-12-05T11:10:33.076Z,46.30
2017-12-05T11:11:33.563Z,46.30
2017-12-05T11:12:59.584Z,50.30
2017-12-05T11:14:00.134Z,43.20
2017-12-05T11:14:59.771Z,44.30
2017-12-05T11:16:00.312Z,44.10
2017-12-05T11:16:59.887Z,47.10
2017-12-05T11:18:00.396Z,43.80
2017-12-05T11:18:59.904Z,54.10
2017-12-05T11:20:00.459Z,46.90
2017-12-05T11:21:00.072Z,44.80
2017-12-05T11:21:59.675Z,43.20
2017-12-05T11:23:00.180Z,41.70
2017-12-05T11:23:59.705Z,46.50
2017-12-05T11:25:00.532Z,40.70
2017-12-05T11:26:00.409Z,42.60
2017-12-05T11:26:59.971Z,42.30
2017-12-05T11:28:00.583Z,45.90
2017-12-05T11:29:00.171Z,45.80
2017-12-05T11:30:26.155Z,44.00
2017-12-05T11:31:52.954Z,48.70
2017-12-05T11:32:53.566Z,48.00
2017-12-05T11:34:20.476Z,45.60
2017-12-05T11:35:20.691Z,49.70
2017-12-05T11:36:21.206Z,41.80
2017-12-05T11:37:20.897Z,42.90
2017-12-05T11:38:46.943Z,45.80
2017-12-05T11:39:46.985Z,39.90
2017-12-05T11:40:47.869Z,38.90
2017-12-05T11:41:47.414Z,41.70
2017-12-05T11:42:46.930Z,41.20
2017-12-05T11:43:47.519Z,40.10
2017-12-05T11:44:47.376Z,47.10
2017-12-05T11:45:46.920Z,34.90
2017-12-05T11:46:47.845Z,40.70
2017-12-05T11:47:47.683Z,44.40
2017-12-05T11:48:47.264Z,37.60
2017-12-05T11:49:47.773Z,33.60
2017-12-05T11:50:47.291Z,38.80
2017-12-05T11:51:47.810Z,33.80
2017-12-05T11:52:47.545Z,34.60
2017-12-05T11:54:13.347Z,32.00
2017-12-05T11:55:14.053Z,38.30
2017-12-05T11:56:41.522Z,39.30
2017-12-05T11:57:41.670Z,36.60
2017-12-05T11:58:43.185Z,40.70
2017-12-05T11:59:41.809Z,38.90
2017-12-05T12:00:41.858Z,35.80
2017-12-05T12:01:42.105Z,41.10
2017-12-05T12:02:41.655Z,45.50
2017-12-05T12:03:42.260Z,36.20
2017-12-05T12:04:41.746Z,37.30
2017-12-05T12:05:42.275Z,34.30
2017-12-05T12:06:42.068Z,39.60
2017-12-05T12:08:07.927Z,35.70
2017-12-05T12:09:08.482Z,40.80
2017-12-05T12:10:07.990Z,40.70
2017-12-05T12:11:08.426Z,37.60
2017-12-05T12:12:08.212Z,38.30
2017-12-05T12:13:08.254Z,42.40
2017-12-05T12:14:08.675Z,35.90
2017-12-05T12:15:08.202Z,34.90
2017-12-05T12:16:08.746Z,37.10
2017-12-05T12:17:08.600Z,32.40
2017-12-05T12:18:08.420Z,30.60
2017-12-05T12:19:08.202Z,33.80
2017-12-05T12:20:08.823Z,26.50
2017-12-05T12:21:09.397Z,29.30
2017-12-05T12:22:08.475Z,31.60
2017-12-05T12:23:08.380Z,29.90
2017-12-05T12:24:08.381Z,33.00
2017-12-05T12:25:08.408Z,32.20
2017-12-05T12:26:08.968Z,34.40
2017-12-05T12:27:08.506Z,29.50
2017-12-05T12:28:08.084Z,30.10
2017-12-05T12:29:08.628Z,29.10
2017-12-05T12:30:08.350Z,26.80
2017-12-05T12:31:08.937Z,27.60
2017-12-05T12:32:08.627Z,31.00
2017-12-05T12:33:08.273Z,25.30
2017-12-05T12:34:35.142Z,22.30
2017-12-05T12:35:35.686Z,26.40
2017-12-05T12:36:35.178Z,24.70
2017-12-05T12:38:02.330Z,21.40
2017-12-05T12:39:02.840Z,30.40
2017-12-05T12:40:02.463Z,25.80
2017-12-05T12:41:02.935Z,24.50
2017-12-05T12:42:02.494Z,22.50
2017-12-05T12:43:03.640Z,25.70
2017-12-05T12:44:03.160Z,26.00
2017-12-05T12:45:02.697Z,25.80
2017-12-05T12:46:02.388Z,22.20
2017-12-05T12:47:03.150Z,25.30
2017-12-05T12:48:02.693Z,24.00
2017-12-05T12:49:02.390Z,25.60
2017-12-05T12:50:02.906Z,23.10
2017-12-05T12:51:02.827Z,22.90
2017-12-05T12:52:02.466Z,21.60
2017-12-05T12:53:02.658Z,22.70
2017-12-05T12:54:03.366Z,22.10
2017-12-05T12:55:03.057Z,24.60
2017-12-05T12:56:02.625Z,20.90
2017-12-05T12:57:03.164Z,25.80
2017-12-05T12:58:02.787Z,28.00
2017-12-05T12:59:02.510Z,25.70
2017-12-05T13:00:03.041Z,26.90
2017-12-05T13:01:02.559Z,26.40
2017-12-05T13:02:03.161Z,25.80
2017-12-05T13:03:02.770Z,26.40
2017-12-05T13:04:02.407Z,26.60
2017-12-05T13:05:03.077Z,29.50
2017-12-05T13:06:02.921Z,29.20
2017-12-05T13:07:02.438Z,24.00